createdAt,value
2023-05-09T00:01:11.572Z,16.30
2023-05-09T00:03:40.382Z,16.20
2023-05-09T00:06:09.669Z,16.20
2023-05-09T00:08:39.231Z,16.20
2023-05-09T00:11:08.839Z,16.20
2023-05-09T00:13:38.920Z,16.20
2023-05-09T00:16:08.269Z,16.20
2023-05-09T00:18:36.822Z,16.20
2023-05-09T00:21:05.436Z,16.20
2023-05-09T00:23:34.084Z,16.20
2023-05-09T00:26:03.295Z,16.20
2023-05-09T00:28:32.278Z,16.20
2023-05-09T00:31:02.262Z,16.20
2023-05-09T00:33:30.401Z,16.20
2023-05-09T00:35:59.271Z,16.20
2023-05-09T00:38:28.184Z,16.20
2023-05-09T00:40:56.739Z,16.20
2023-05-09T00:43:25.154Z,16.20
2023-05-09T00:45:53.819Z,16.20
2023-05-09T00:48:24.133Z,16.10
2023-05-09T00:50:53.430Z,16.10
2023-05-09T00:53:22.077Z,16.00
2023-05-09T00:55:51.997Z,15.90
2023-05-09T00:58:21.021Z,15.90
2023-05-09T01:00:49.669Z,15.80
2023-05-09T01:03:18.255Z,15.70
2023-05-09T01:05:57.284Z,15.70
2023-05-09T01:08:36.322Z,15.60
2023-05-09T01:11:11.670Z,15.60
2023-05-09T01:13:51.201Z,15.60
2023-05-09T01:16:25.290Z,15.60
2023-05-09T01:18:59.637Z,15.60
2023-05-09T01:21:32.615Z,15.70
2023-05-09T01:24:38.829Z,15.70
2023-05-09T01:27:22.627Z,15.70
2023-05-09T01:29:55.298Z,15.70
2023-05-09T01:32:27.611Z,15.70
2023-05-09T01:34:59.397Z,15.60
2023-05-09T01:37:34.555Z,15.70
2023-05-09T01:40:07.162Z,15.70
2023-05-09T01:42:42.081Z,15.70
2023-05-09T01:45:15.777Z,15.70
2023-05-09T01:47:45.342Z,15.70
2023-05-09T01:50:16.886Z,15.60
2023-05-09T01:52:48.933Z,15.60
2023-05-09T01:55:20.026Z,15.50
2023-05-09T01:57:50.280Z,15.50
2023-05-09T02:00:22.470Z,15.40
2023-05-09T02:02:51.551Z,15.30
2023-05-09T02:05:20.101Z,15.30
2023-05-09T02:07:50.035Z,15.20
2023-05-09T02:10:21.086Z,15.10
2023-05-09T02:12:50.036Z,15.10
2023-05-09T02:15:20.851Z,15.10
2023-05-09T02:17:50.465Z,15.10
2023-05-09T02:20:19.497Z,15.20
2023-05-09T02:22:50.129Z,15.30
2023-05-09T02:25:18.935Z,15.40
2023-05-09T02:27:49.569Z,15.40
2023-05-09T02:30:25.409Z,15.50
2023-05-09T02:32:58.735Z,15.40
2023-05-09T02:35:28.734Z,15.40
2023-05-09T02:37:58.556Z,15.30
2023-05-09T02:40:28.863Z,15.20
2023-05-09T02:42:57.496Z,15.00
2023-05-09T02:45:27.975Z,14.80
2023-05-09T02:47:57.574Z,14.70
2023-05-09T02:50:25.725Z,14.50
2023-05-09T02:52:55.902Z,14.40
2023-05-09T02:55:24.509Z,14.30
2023-05-09T02:58:05.303Z,14.20
2023-05-09T03:00:42.862Z,14.10
2023-05-09T03:03:11.869Z,14.10
2023-05-09T03:05:40.460Z,14.00
2023-05-09T03:08:09.770Z,14.00
2023-05-09T03:10:38.220Z,14.00
2023-05-09T03:13:07.265Z,14.00
2023-05-09T03:15:35.836Z,13.90
2023-05-09T03:18:07.397Z,13.90
2023-05-09T03:20:35.817Z,13.90
2023-05-09T03:23:05.256Z,13.80
2023-05-09T03:25:33.797Z,13.80
2023-05-09T03:28:02.360Z,13.80
2023-05-09T03:30:31.439Z,13.70
2023-05-09T03:33:00.556Z,13.70
2023-05-09T03:35:30.765Z,13.60
2023-05-09T03:37:59.243Z,13.60
2023-05-09T03:40:27.646Z,13.60
2023-05-09T03:43:06.739Z,13.60
2023-05-09T03:45:35.894Z,13.60
2023-05-09T03:48:08.604Z,13.50
2023-05-09T03:50:43.873Z,13.50
2023-05-09T03:53:15.550Z,13.50
2023-05-09T03:55:46.227Z,13.40
2023-05-09T03:58:16.535Z,13.40
2023-05-09T04:00:46.196Z,13.40
2023-05-09T04:03:21.377Z,13.40
2023-05-09T04:05:53.477Z,13.40
2023-05-09T04:08:36.232Z,13.40
2023-05-09T04:11:06.552Z,13.40
2023-05-09T04:13:36.612Z,13.40
2023-05-09T04:16:12.492Z,13.40
2023-05-09T04:18:42.687Z,13.50
2023-05-09T04:21:12.683Z,13.50
2023-05-09T04:23:43.822Z,13.50
2023-05-09T04:26:14.111Z,13.60
2023-05-09T04:28:44.141Z,13.60
2023-05-09T04:31:16.326Z,13.60
2023-05-09T04:33:48.291Z,13.70
2023-05-09T04:36:18.456Z,13.70
2023-05-09T04:38:47.336Z,13.80
2023-05-09T04:41:19.682Z,13.90
2023-05-09T04:43:47.929Z,14.00
2023-05-09T04:46:18.041Z,14.00
2023-05-09T04:48:46.899Z,14.10
2023-05-09T04:51:15.471Z,14.10
2023-05-09T04:53:45.356Z,14.20
2023-05-09T04:56:14.077Z,14.30
2023-05-09T04:58:44.078Z,14.40
2023-05-09T05:01:13.345Z,14.50
2023-05-09T05:03:42.280Z,14.70
2023-05-09T05:06:11.394Z,14.90
2023-05-09T05:08:42.294Z,15.10
2023-05-09T05:11:13.702Z,15.40
2023-05-09T05:13:42.759Z,15.70
2023-05-09T05:16:12.354Z,16.20
2023-05-09T05:18:44.663Z,16.90
2023-05-09T05:21:14.078Z,17.50
2023-05-09T05:23:43.580Z,18.20
2023-05-09T05:26:14.079Z,18.90
2023-05-09T05:28:45.785Z,19.50
2023-05-09T05:31:15.432Z,19.90
2023-05-09T05:33:43.807Z,19.70
2023-05-09T05:36:12.486Z,19.40
2023-05-09T05:38:42.923Z,18.90
2023-05-09T05:41:12.274Z,18.60
2023-05-09T05:43:44.443Z,18.40
2023-05-09T05:46:13.547Z,18.30
2023-05-09T05:48:43.195Z,18.40
2023-05-09T05:51:11.750Z,18.70
2023-05-09T05:53:42.784Z,18.90
2023-05-09T05:56:11.648Z,19.20
2023-05-09T05:58:39.969Z,19.60
2023-05-09T06:01:12.252Z,19.70
2023-05-09T06:03:42.289Z,19.90
2023-05-09T06:06:11.693Z,19.80
2023-05-09T06:08:40.106Z,19.60
2023-05-09T06:11:08.650Z,19.30
2023-05-09T06:13:37.118Z,19.10
2023-05-09T06:16:19.665Z,18.80
2023-05-09T06:18:53.339Z,18.60
2023-05-09T06:21:23.273Z,18.60
2023-05-09T06:26:26.303Z,18.90
2023-05-09T06:28:54.446Z,19.00
2023-05-09T06:31:25.824Z,19.00
2023-05-09T06:33:55.871Z,19.40
2023-05-09T06:36:24.589Z,19.90
2023-05-09T06:38:53.480Z,20.30
2023-05-09T06:41:22.402Z,20.60
2023-05-09T06:43:51.265Z,21.10
2023-05-09T06:46:19.854Z,21.20
2023-05-09T06:48:50.806Z,21.20
2023-05-09T06:51:19.070Z,21.30
2023-05-09T06:53:47.675Z,21.70
2023-05-09T06:56:18.833Z,21.90
2023-05-09T06:58:48.492Z,22.20
2023-05-09T07:01:17.023Z,22.10
2023-05-09T07:03:47.655Z,22.10
2023-05-09T07:06:17.927Z,22.10
2023-05-09T07:08:46.642Z,21.90
2023-05-09T07:11:15.175Z,21.80
2023-05-09T07:13:43.634Z,21.60
2023-05-09T07:16:12.303Z,21.20
2023-05-09T07:18:41.124Z,21.10
2023-05-09T07:21:09.417Z,21.20
2023-05-09T07:23:40.131Z,21.30
2023-05-09T07:26:08.699Z,21.20
2023-05-09T07:28:37.055Z,21.20
2023-05-09T07:31:06.099Z,21.20
2023-05-09T07:33:35.848Z,21.40
2023-05-09T07:36:05.713Z,21.40
2023-05-09T07:38:34.559Z,21.30
2023-05-09T07:41:04.838Z,21.30
2023-05-09T07:43:33.623Z,21.30
2023-05-09T07:46:02.441Z,21.40
2023-05-09T07:48:30.999Z,21.50
2023-05-09T07:50:59.481Z,21.50
2023-05-09T07:53:27.910Z,21.60
2023-05-09T07:55:56.272Z,21.70
2023-05-09T07:58:25.992Z,21.70
2023-05-09T08:00:58.393Z,21.70
2023-05-09T08:03:31.037Z,21.40
2023-05-09T08:06:01.475Z,21.40
2023-05-09T08:08:30.469Z,21.60
2023-05-09T08:11:01.264Z,21.80
2023-05-09T08:13:31.245Z,21.90
2023-05-09T08:15:59.881Z,22.10
2023-05-09T08:18:29.967Z,22.10
2023-05-09T08:20:59.617Z,22.10
2023-05-09T08:23:30.231Z,22.20
2023-05-09T08:25:59.343Z,22.30
2023-05-09T08:28:29.099Z,22.20
2023-05-09T08:30:59.135Z,21.90
2023-05-09T08:33:28.246Z,21.90
2023-05-09T08:35:56.980Z,22.00
2023-05-09T08:38:26.339Z,22.20
2023-05-09T08:40:54.703Z,22.20
2023-05-09T08:43:25.457Z,22.30
2023-05-09T08:45:58.408Z,22.40
2023-05-09T08:48:29.972Z,22.70
2023-05-09T08:50:58.874Z,22.50
2023-05-09T08:53:29.194Z,22.20
2023-05-09T08:56:00.455Z,21.90
2023-05-09T08:58:29.384Z,21.70
2023-05-09T09:00:58.393Z,21.60
2023-05-09T09:03:29.070Z,21.40
2023-05-09T09:05:57.914Z,21.40
2023-05-09T09:08:27.774Z,21.40
2023-05-09T09:10:56.912Z,21.40
2023-05-09T09:13:25.893Z,21.20
2023-05-09T09:15:56.245Z,21.20
2023-05-09T09:18:30.868Z,21.40
2023-05-09T09:21:03.274Z,22.00
2023-05-09T09:23:32.579Z,22.70
2023-05-09T09:26:02.635Z,23.20
2023-05-09T09:28:30.843Z,23.90
2023-05-09T09:30:59.035Z,24.30
2023-05-09T09:33:30.757Z,24.80
2023-05-09T09:35:59.852Z,25.00
2023-05-09T09:38:28.256Z,24.90
2023-05-09T09:40:58.820Z,25.00
2023-05-09T09:43:31.297Z,24.60
2023-05-09T09:46:03.304Z,24.40
2023-05-09T09:48:35.912Z,24.60
2023-05-09T09:51:10.053Z,25.10
2023-05-09T09:53:43.818Z,25.40
2023-05-09T09:56:12.651Z,25.00
2023-05-09T09:58:42.826Z,25.00
2023-05-09T10:01:13.893Z,25.50
2023-05-09T10:03:45.409Z,26.20
2023-05-09T10:06:14.965Z,26.60
2023-05-09T10:08:44.425Z,26.90
2023-05-09T10:11:12.982Z,26.90
2023-05-09T10:13:42.507Z,26.60
2023-05-09T10:16:15.381Z,26.00
2023-05-09T10:18:47.332Z,25.40
2023-05-09T10:21:18.375Z,25.10
2023-05-09T10:23:50.064Z,24.90
2023-05-09T10:26:22.932Z,25.30
2023-05-09T10:28:56.604Z,26.00
2023-05-09T10:31:28.412Z,27.00
2023-05-09T10:34:06.596Z,27.50
2023-05-09T10:36:36.556Z,27.80
2023-05-09T10:39:06.180Z,27.90
2023-05-09T10:41:35.480Z,27.90
2023-05-09T10:44:04.016Z,27.90
2023-05-09T10:46:33.074Z,28.30
2023-05-09T10:49:03.175Z,28.30
2023-05-09T10:51:35.696Z,28.20
2023-05-09T10:54:15.516Z,28.00
2023-05-09T10:56:44.198Z,27.30
2023-05-09T10:59:37.362Z,26.90
2023-05-09T11:02:07.277Z,26.90
2023-05-09T11:04:37.103Z,26.60
2023-05-09T11:07:08.173Z,26.40
2023-05-09T11:09:38.861Z,25.80
2023-05-09T11:12:14.373Z,25.60
2023-05-09T11:14:45.934Z,25.80
2023-05-09T11:17:15.933Z,26.20
2023-05-09T11:20:05.757Z,26.40
2023-05-09T11:22:43.603Z,26.30
2023-05-09T11:25:14.404Z,26.30
2023-05-09T11:27:45.552Z,25.70
2023-05-09T11:30:15.716Z,25.50
2023-05-09T11:32:47.144Z,25.30
2023-05-09T11:35:19.610Z,25.20
2023-05-09T11:37:50.822Z,25.30
2023-05-09T11:40:20.828Z,25.30
2023-05-09T11:42:54.065Z,25.40
2023-05-09T11:45:25.469Z,25.60
2023-05-09T11:47:55.124Z,25.70
2023-05-09T11:50:25.172Z,25.70
2023-05-09T11:52:54.449Z,25.60
2023-05-09T11:55:25.660Z,25.10
2023-05-09T11:57:55.919Z,24.90
2023-05-09T12:00:26.135Z,24.60
2023-05-09T12:02:56.313Z,24.30
2023-05-09T12:05:27.136Z,24.20
2023-05-09T12:07:55.604Z,24.10
2023-05-09T12:10:24.678Z,23.70
2023-05-09T12:12:55.660Z,23.60
2023-05-09T12:15:25.110Z,23.70
2023-05-09T12:18:04.218Z,24.30
2023-05-09T12:20:44.284Z,25.30
2023-05-09T12:23:14.664Z,25.70
2023-05-09T12:25:49.211Z,26.10
2023-05-09T12:28:17.777Z,26.40
2023-05-09T12:30:46.358Z,26.50
2023-05-09T12:33:17.817Z,26.60
2023-05-09T12:35:49.569Z,26.80
2023-05-09T12:38:23.912Z,27.00
2023-05-09T12:41:03.869Z,27.10
2023-05-09T12:43:35.720Z,26.90
2023-05-09T12:46:07.056Z,26.50
2023-05-09T12:48:39.341Z,26.00
2023-05-09T12:51:09.740Z,25.60
2023-05-09T12:53:42.617Z,25.30
2023-05-09T12:56:15.760Z,25.20
2023-05-09T12:58:51.489Z,25.20
2023-05-09T13:01:20.130Z,24.90
2023-05-09T13:03:55.074Z,24.80
2023-05-09T13:06:25.425Z,24.80
2023-05-09T13:09:01.694Z,25.30
2023-05-09T13:11:30.830Z,25.80
2023-05-09T13:14:00.393Z,26.00
2023-05-09T13:16:30.502Z,26.60
2023-05-09T13:19:06.272Z,27.20
2023-05-09T13:21:36.245Z,27.40
2023-05-09T13:24:06.296Z,27.60
2023-05-09T13:26:36.780Z,27.80
2023-05-09T13:29:06.514Z,28.10
2023-05-09T13:31:35.140Z,28.60
2023-05-09T13:34:06.782Z,28.30
2023-05-09T13:36:38.791Z,28.00
2023-05-09T13:39:07.552Z,27.70
2023-05-09T13:41:36.907Z,28.00
2023-05-09T13:44:07.622Z,28.00
2023-05-09T13:46:36.194Z,27.80
2023-05-09T13:49:04.501Z,27.80
2023-05-09T13:51:33.809Z,27.50
2023-05-09T13:54:08.806Z,27.20
2023-05-09T13:56:37.442Z,27.00
2023-05-09T13:59:08.051Z,26.80
2023-05-09T14:01:36.737Z,26.60
2023-05-09T14:04:06.335Z,26.80
2023-05-09T14:06:34.875Z,26.60
2023-05-09T14:09:04.867Z,26.40
2023-05-09T14:11:34.461Z,26.00
2023-05-09T14:14:03.703Z,25.80
2023-05-09T14:16:32.336Z,26.00
2023-05-09T14:19:02.317Z,25.80
2023-05-09T14:21:32.440Z,25.70
2023-05-09T14:24:01.303Z,25.80
2023-05-09T14:26:31.060Z,26.40
2023-05-09T14:28:59.980Z,27.00
2023-05-09T14:31:29.177Z,27.20
2023-05-09T14:33:57.833Z,27.20
2023-05-09T14:36:26.973Z,26.80
2023-05-09T14:38:55.734Z,26.20
2023-05-09T14:41:26.074Z,25.50
2023-05-09T14:43:56.405Z,25.00
2023-05-09T14:46:26.038Z,24.60
2023-05-09T14:48:54.521Z,24.30
2023-05-09T14:51:24.754Z,24.10
2023-05-09T14:53:53.383Z,23.70
2023-05-09T14:56:22.325Z,23.30
2023-05-09T14:58:51.151Z,23.00
2023-05-09T15:01:21.469Z,22.70
2023-05-09T15:03:50.115Z,22.30
2023-05-09T15:06:19.412Z,21.50
2023-05-09T15:08:47.828Z,20.80
2023-05-09T15:11:15.995Z,20.00
2023-05-09T15:13:44.174Z,19.60
2023-05-09T15:16:12.426Z,19.30
2023-05-09T15:18:45.532Z,19.20
2023-05-09T15:21:14.047Z,19.20
2023-05-09T15:23:42.019Z,19.40
2023-05-09T15:26:12.312Z,19.80
2023-05-09T15:28:40.644Z,20.10
2023-05-09T15:31:09.413Z,20.50
2023-05-09T15:33:37.724Z,21.00
2023-05-09T15:36:09.772Z,21.40
2023-05-09T15:38:40.986Z,21.70
2023-05-09T15:41:10.333Z,21.80
2023-05-09T15:43:38.548Z,22.00
2023-05-09T15:46:07.674Z,22.10
2023-05-09T15:48:36.591Z,22.20
2023-05-09T15:51:04.957Z,22.40
2023-05-09T15:53:35.253Z,22.50
2023-05-09T15:56:04.609Z,22.60
2023-05-09T15:58:34.115Z,22.80
2023-05-09T16:01:05.834Z,23.00
2023-05-09T16:03:34.690Z,23.30
2023-05-09T16:06:03.917Z,23.40
2023-05-09T16:08:32.995Z,23.60
2023-05-09T16:11:03.765Z,23.40
2023-05-09T16:13:34.337Z,23.20
2023-05-09T16:16:05.381Z,23.10
2023-05-09T16:18:34.743Z,22.80
2023-05-09T16:21:05.730Z,22.50
2023-05-09T16:23:34.901Z,22.30
2023-05-09T16:26:04.957Z,22.20
2023-05-09T16:28:33.818Z,22.10
2023-05-09T16:31:06.246Z,22.00
2023-05-09T16:33:34.795Z,21.90
2023-05-09T16:36:03.502Z,21.70
2023-05-09T16:38:33.239Z,21.60
2023-05-09T16:41:01.817Z,21.40
2023-05-09T16:43:33.678Z,21.30
2023-05-09T16:46:02.004Z,21.20
2023-05-09T16:48:34.796Z,21.10
2023-05-09T16:51:04.527Z,21.00
2023-05-09T16:53:36.410Z,20.80
2023-05-09T16:56:05.623Z,20.60
2023-05-09T16:58:36.837Z,20.40
2023-05-09T17:01:06.483Z,20.20
2023-05-09T17:03:35.062Z,20.00
2023-05-09T17:06:04.006Z,19.80
2023-05-09T17:08:32.959Z,19.70
2023-05-09T17:11:01.938Z,19.60
2023-05-09T17:13:32.578Z,19.60
2023-05-09T17:16:02.670Z,19.50
2023-05-09T17:18:37.375Z,19.40
2023-05-09T17:21:07.018Z,19.20
2023-05-09T17:23:36.194Z,19.10
2023-05-09T17:26:05.199Z,19.00
2023-05-09T17:28:33.638Z,18.90
2023-05-09T17:31:04.043Z,18.80
2023-05-09T17:33:32.565Z,18.70
2023-05-09T17:36:02.988Z,18.60
2023-05-09T17:38:31.406Z,18.50
2023-05-09T17:41:00.887Z,18.40
2023-05-09T17:43:29.723Z,18.30
2023-05-09T17:45:58.747Z,18.10
2023-05-09T17:48:30.027Z,17.80
2023-05-09T17:50:58.390Z,17.40
2023-05-09T17:53:28.461Z,17.10
2023-05-09T17:55:58.587Z,16.80
2023-05-09T17:58:27.961Z,16.70
2023-05-09T18:00:59.074Z,16.70
2023-05-09T18:03:29.870Z,16.60
2023-05-09T18:06:01.750Z,16.50
2023-05-09T18:08:31.134Z,16.20
2023-05-09T18:10:59.382Z,16.10
2023-05-09T18:13:28.444Z,15.80
2023-05-09T18:15:59.801Z,15.70
2023-05-09T18:18:32.405Z,15.60
2023-05-09T18:21:00.779Z,15.60
2023-05-09T18:23:29.534Z,15.60
2023-05-09T18:25:57.893Z,15.60
2023-05-09T18:28:28.724Z,15.60
2023-05-09T18:30:59.632Z,15.70
2023-05-09T18:33:31.782Z,15.70
2023-05-09T18:36:00.200Z,15.60
2023-05-09T18:38:29.031Z,15.50
2023-05-09T18:40:58.161Z,15.40
2023-05-09T18:43:32.076Z,15.50
2023-05-09T18:46:00.614Z,15.50
2023-05-09T18:48:31.853Z,15.60
2023-05-09T18:51:02.054Z,15.60
2023-05-09T18:53:32.881Z,15.40
2023-05-09T18:56:01.885Z,15.50
2023-05-09T18:58:30.941Z,15.50
2023-05-09T19:01:01.213Z,15.60
2023-05-09T19:03:31.451Z,15.60
2023-05-09T19:06:00.996Z,15.50
2023-05-09T19:08:31.819Z,15.50
2023-05-09T19:11:00.627Z,15.60
2023-05-09T19:13:28.896Z,15.60
2023-05-09T19:15:58.004Z,15.60
2023-05-09T19:18:27.065Z,15.60
2023-05-09T19:20:58.891Z,15.50
2023-05-09T19:23:28.828Z,15.50
2023-05-09T19:25:57.511Z,15.60
2023-05-09T19:28:26.516Z,15.60
2023-05-09T19:30:57.056Z,15.60
2023-05-09T19:33:26.466Z,15.60
2023-05-09T19:35:57.197Z,15.60
2023-05-09T19:38:26.263Z,15.50
2023-05-09T19:40:54.736Z,15.60
2023-05-09T19:43:24.373Z,15.60
2023-05-09T19:45:53.481Z,15.60
2023-05-09T19:48:23.678Z,15.70
2023-05-09T19:50:59.421Z,15.70
2023-05-09T19:53:27.715Z,15.80
2023-05-09T19:55:56.488Z,15.90
2023-05-09T19:58:25.202Z,15.90
2023-05-09T20:00:53.981Z,15.90
2023-05-09T20:03:23.075Z,15.90
2023-05-09T20:05:52.118Z,15.80
2023-05-09T20:08:23.049Z,15.80
2023-05-09T20:10:51.702Z,15.60
2023-05-09T20:13:20.420Z,15.50
2023-05-09T20:15:49.317Z,15.40
2023-05-09T20:18:19.031Z,15.30
2023-05-09T20:20:48.972Z,15.20
2023-05-09T20:23:17.572Z,15.10
2023-05-09T20:25:47.729Z,15.10
2023-05-09T20:28:20.681Z,15.00
2023-05-09T20:30:49.405Z,15.00
2023-05-09T20:33:20.345Z,14.90
2023-05-09T20:35:49.647Z,15.00
2023-05-09T20:38:18.462Z,14.90
2023-05-09T20:40:49.251Z,14.90
2023-05-09T20:43:19.306Z,14.90
2023-05-09T20:45:48.386Z,14.90
2023-05-09T20:48:17.422Z,14.90
2023-05-09T20:50:46.537Z,14.90
2023-05-09T20:53:14.866Z,14.90
2023-05-09T20:55:44.585Z,14.90
2023-05-09T20:58:15.231Z,15.00
2023-05-09T21:00:46.867Z,15.00
2023-05-09T21:03:15.731Z,14.90
2023-05-09T21:05:44.592Z,14.90
2023-05-09T21:08:13.059Z,14.90
2023-05-09T21:10:41.700Z,14.90
2023-05-09T21:13:10.170Z,14.90
2023-05-09T21:15:39.957Z,14.90
2023-05-09T21:18:08.400Z,14.90
2023-05-09T21:20:37.161Z,14.90
2023-05-09T21:23:05.935Z,14.90
2023-05-09T21:25:34.587Z,14.90
2023-05-09T21:28:03.063Z,14.80
2023-05-09T21:30:31.689Z,14.90
2023-05-09T21:33:03.969Z,14.90
2023-05-09T21:35:32.735Z,14.90
2023-05-09T21:38:02.054Z,14.90
2023-05-09T21:40:30.707Z,14.90
2023-05-09T21:42:59.968Z,14.80
2023-05-09T21:45:28.872Z,14.80
2023-05-09T21:47:57.633Z,14.80
2023-05-09T21:50:27.669Z,14.80
2023-05-09T21:53:00.811Z,14.80
2023-05-09T21:55:29.375Z,14.80
2023-05-09T21:57:58.019Z,14.70
2023-05-09T22:00:26.992Z,14.80
2023-05-09T22:02:57.679Z,14.70
2023-05-09T22:05:28.561Z,14.80
2023-05-09T22:07:57.443Z,14.80
2023-05-09T22:10:27.185Z,14.80
2023-05-09T22:12:55.833Z,14.80
2023-05-09T22:15:24.914Z,14.90
2023-05-09T22:17:53.984Z,14.90
2023-05-09T22:20:23.133Z,14.90
2023-05-09T22:22:53.596Z,14.90
2023-05-09T22:25:22.227Z,14.90
2023-05-09T22:27:51.179Z,14.90
2023-05-09T22:30:20.200Z,14.90
2023-05-09T22:32:48.954Z,14.90
2023-05-09T22:35:17.537Z,14.90
2023-05-09T22:37:46.081Z,14.90
2023-05-09T22:40:17.912Z,14.90
2023-05-09T22:42:48.994Z,14.90
2023-05-09T22:45:21.264Z,14.90
2023-05-09T22:50:38.116Z,14.90
2023-05-09T22:53:07.779Z,14.70
2023-05-09T22:55:38.820Z,14.70
2023-05-09T22:58:08.477Z,14.50
2023-05-09T23:00:38.216Z,14.30
2023-05-09T23:03:08.776Z,14.10
2023-05-09T23:05:38.876Z,13.90
2023-05-09T23:08:07.499Z,13.80
2023-05-09T23:10:42.227Z,13.70
2023-05-09T23:13:13.655Z,13.70
2023-05-09T23:15:44.590Z,13.60
2023-05-09T23:18:13.873Z,13.50
2023-05-09T23:20:43.108Z,13.40
2023-05-09T23:23:14.551Z,13.40
2023-05-09T23:25:51.174Z,13.20
2023-05-09T23:28:25.357Z,13.20
2023-05-09T23:30:55.516Z,13.20
2023-05-09T23:33:26.377Z,13.10
2023-05-09T23:35:56.262Z,13.10
2023-05-09T23:38:26.649Z,13.10
2023-05-09T23:41:40.099Z,13.00
2023-05-09T23:44:10.324Z,13.00
2023-05-09T23:46:39.995Z,13.00
2023-05-09T23:49:24.606Z,13.00
2023-05-09T23:51:54.139Z,13.00
2023-05-09T23:54:23.583Z,13.00
2023-05-09T23:56:55.004Z,13.10
2023-05-09T23:59:24.185Z,13.10
